sensor_id;sensor_type;location;lat;lon;timestamp;P1;durP1;ratioP1;P2;durP2;ratioP2
12312;SDS011;6220;53.580;9.758;2023-04-15T00:01:07;4.80;;;4.03;;
12312;SDS011;6220;53.580;9.758;2023-04-15T00:03:34;4.73;;;4.30;;
12312;SDS011;6220;53.580;9.758;2023-04-15T00:06:00;5.80;;;4.20;;
12312;SDS011;6220;53.580;9.758;2023-04-15T00:08:26;4.77;;;4.23;;
12312;SDS011;6220;53.580;9.758;2023-04-15T00:10:51;5.93;;;3.80;;
12312;SDS011;6220;53.580;9.758;2023-04-15T00:13:17;4.20;;;3.73;;
12312;SDS011;6220;53.580;9.758;2023-04-15T00:15:42;4.43;;;3.83;;
12312;SDS011;6220;53.580;9.758;2023-04-15T00:18:08;5.23;;;4.23;;
12312;SDS011;6220;53.580;9.758;2023-04-15T00:20:34;5.40;;;4.23;;
12312;SDS011;6220;53.580;9.758;2023-04-15T00:23:00;4.50;;;4.10;;
12312;SDS011;6220;53.580;9.758;2023-04-15T00:25:27;4.60;;;4.03;;
12312;SDS011;6220;53.580;9.758;2023-04-15T00:27:53;4.50;;;4.10;;
12312;SDS011;6220;53.580;9.758;2023-04-15T00:30:19;4.70;;;4.20;;
12312;SDS011;6220;53.580;9.758;2023-04-15T00:32:45;7.00;;;4.60;;
12312;SDS011;6220;53.580;9.758;2023-04-15T00:35:10;6.40;;;4.80;;
12312;SDS011;6220;53.580;9.758;2023-04-15T00:37:36;6.33;;;5.50;;
12312;SDS011;6220;53.580;9.758;2023-04-15T00:40:01;5.43;;;4.87;;
12312;SDS011;6220;53.580;9.758;2023-04-15T00:42:29;6.07;;;4.83;;
12312;SDS011;6220;53.580;9.758;2023-04-15T00:44:55;5.87;;;5.23;;
12312;SDS011;6220;53.580;9.758;2023-04-15T00:47:21;7.17;;;5.73;;
12312;SDS011;6220;53.580;9.758;2023-04-15T00:49:46;7.13;;;5.73;;
12312;SDS011;6220;53.580;9.758;2023-04-15T00:52:12;6.07;;;5.47;;
12312;SDS011;6220;53.580;9.758;2023-04-15T00:54:37;5.63;;;5.07;;
12312;SDS011;6220;53.580;9.758;2023-04-15T00:57:04;6.77;;;5.20;;
12312;SDS011;6220;53.580;9.758;2023-04-15T00:59:30;6.07;;;5.47;;
12312;SDS011;6220;53.580;9.758;2023-04-15T01:01:57;5.93;;;5.33;;
12312;SDS011;6220;53.580;9.758;2023-04-15T01:04:23;6.83;;;6.13;;
12312;SDS011;6220;53.580;9.758;2023-04-15T01:06:48;8.53;;;6.33;;
12312;SDS011;6220;53.580;9.758;2023-04-15T01:09:14;7.13;;;6.10;;
12312;SDS011;6220;53.580;9.758;2023-04-15T01:11:40;7.87;;;6.67;;
12312;SDS011;6220;53.580;9.758;2023-04-15T01:14:05;7.77;;;6.83;;
12312;SDS011;6220;53.580;9.758;2023-04-15T01:16:32;8.80;;;6.87;;
12312;SDS011;6220;53.580;9.758;2023-04-15T01:18:57;8.70;;;6.20;;
12312;SDS011;6220;53.580;9.758;2023-04-15T01:21:23;7.73;;;6.87;;
12312;SDS011;6220;53.580;9.758;2023-04-15T01:23:48;7.07;;;6.20;;
12312;SDS011;6220;53.580;9.758;2023-04-15T01:26:15;9.23;;;6.60;;
12312;SDS011;6220;53.580;9.758;2023-04-15T01:28:41;8.37;;;6.43;;
12312;SDS011;6220;53.580;9.758;2023-04-15T01:31:09;10.33;;;6.57;;
12312;SDS011;6220;53.580;9.758;2023-04-15T01:33:37;7.50;;;6.33;;
12312;SDS011;6220;53.580;9.758;2023-04-15T01:36:04;7.40;;;6.30;;
12312;SDS011;6220;53.580;9.758;2023-04-15T01:38:32;7.40;;;6.53;;
12312;SDS011;6220;53.580;9.758;2023-04-15T01:40:58;7.73;;;6.93;;
12312;SDS011;6220;53.580;9.758;2023-04-15T01:43:24;6.60;;;5.90;;
12312;SDS011;6220;53.580;9.758;2023-04-15T01:45:49;6.90;;;5.80;;
12312;SDS011;6220;53.580;9.758;2023-04-15T01:48:15;8.23;;;6.37;;
12312;SDS011;6220;53.580;9.758;2023-04-15T01:50:41;7.73;;;6.37;;
12312;SDS011;6220;53.580;9.758;2023-04-15T01:53:07;6.33;;;5.60;;
12312;SDS011;6220;53.580;9.758;2023-04-15T01:55:32;7.10;;;5.93;;
12312;SDS011;6220;53.580;9.758;2023-04-15T01:57:58;6.40;;;5.80;;
12312;SDS011;6220;53.580;9.758;2023-04-15T02:00:23;6.53;;;5.67;;
12312;SDS011;6220;53.580;9.758;2023-04-15T02:02:48;6.03;;;5.43;;
12312;SDS011;6220;53.580;9.758;2023-04-15T02:05:14;7.07;;;6.37;;
12312;SDS011;6220;53.580;9.758;2023-04-15T02:07:41;8.17;;;5.43;;
12312;SDS011;6220;53.580;9.758;2023-04-15T02:10:07;5.63;;;5.13;;
12312;SDS011;6220;53.580;9.758;2023-04-15T02:12:33;6.27;;;5.17;;
12312;SDS011;6220;53.580;9.758;2023-04-15T02:14:58;6.57;;;5.87;;
12312;SDS011;6220;53.580;9.758;2023-04-15T02:17:24;5.97;;;5.30;;
12312;SDS011;6220;53.580;9.758;2023-04-15T02:19:50;6.83;;;5.73;;
12312;SDS011;6220;53.580;9.758;2023-04-15T02:22:15;5.77;;;5.27;;
12312;SDS011;6220;53.580;9.758;2023-04-15T02:24:42;8.00;;;5.80;;
12312;SDS011;6220;53.580;9.758;2023-04-15T02:27:08;6.87;;;5.97;;
12312;SDS011;6220;53.580;9.758;2023-04-15T02:29:34;5.67;;;5.17;;
12312;SDS011;6220;53.580;9.758;2023-04-15T02:31:59;6.23;;;5.60;;
12312;SDS011;6220;53.580;9.758;2023-04-15T02:34:25;6.00;;;5.40;;
12312;SDS011;6220;53.580;9.758;2023-04-15T02:36:51;5.50;;;5.00;;
12312;SDS011;6220;53.580;9.758;2023-04-15T02:39:21;5.60;;;5.00;;
12312;SDS011;6220;53.580;9.758;2023-04-15T02:41:46;5.73;;;5.23;;
12312;SDS011;6220;53.580;9.758;2023-04-15T02:44:15;6.33;;;5.73;;
12312;SDS011;6220;53.580;9.758;2023-04-15T02:46:44;7.20;;;5.67;;
12312;SDS011;6220;53.580;9.758;2023-04-15T02:49:12;6.03;;;4.97;;
12312;SDS011;6220;53.580;9.758;2023-04-15T02:51:38;6.23;;;5.63;;
12312;SDS011;6220;53.580;9.758;2023-04-15T02:54:03;5.90;;;5.40;;
12312;SDS011;6220;53.580;9.758;2023-04-15T02:56:29;6.23;;;5.63;;
12312;SDS011;6220;53.580;9.758;2023-04-15T02:58:55;6.80;;;6.10;;
12312;SDS011;6220;53.580;9.758;2023-04-15T03:01:20;7.20;;;6.23;;
12312;SDS011;6220;53.580;9.758;2023-04-15T03:03:46;6.67;;;6.00;;
12312;SDS011;6220;53.580;9.758;2023-04-15T03:06:11;6.33;;;5.73;;
12312;SDS011;6220;53.580;9.758;2023-04-15T03:08:36;6.70;;;5.80;;
12312;SDS011;6220;53.580;9.758;2023-04-15T03:11:02;7.50;;;5.80;;
12312;SDS011;6220;53.580;9.758;2023-04-15T03:13:28;6.77;;;6.07;;
12312;SDS011;6220;53.580;9.758;2023-04-15T03:15:54;7.30;;;6.60;;
12312;SDS011;6220;53.580;9.758;2023-04-15T03:18:19;6.70;;;6.00;;
12312;SDS011;6220;53.580;9.758;2023-04-15T03:20:44;8.33;;;5.87;;
12312;SDS011;6220;53.580;9.758;2023-04-15T03:23:10;7.27;;;6.33;;
12312;SDS011;6220;53.580;9.758;2023-04-15T03:25:35;7.03;;;6.23;;
12312;SDS011;6220;53.580;9.758;2023-04-15T03:28:01;7.10;;;5.93;;
12312;SDS011;6220;53.580;9.758;2023-04-15T03:30:27;7.60;;;6.30;;
12312;SDS011;6220;53.580;9.758;2023-04-15T03:32:54;6.70;;;5.97;;
12312;SDS011;6220;53.580;9.758;2023-04-15T03:35:19;7.30;;;6.37;;
12312;SDS011;6220;53.580;9.758;2023-04-15T03:37:45;7.70;;;6.90;;
12312;SDS011;6220;53.580;9.758;2023-04-15T03:40:11;7.50;;;6.70;;
12312;SDS011;6220;53.580;9.758;2023-04-15T03:42:36;8.40;;;7.50;;
12312;SDS011;6220;53.580;9.758;2023-04-15T03:45:02;8.50;;;7.13;;
12312;SDS011;6220;53.580;9.758;2023-04-15T03:47:28;7.73;;;6.80;;
12312;SDS011;6220;53.580;9.758;2023-04-15T03:49:53;7.27;;;6.57;;
12312;SDS011;6220;53.580;9.758;2023-04-15T03:52:18;7.60;;;6.90;;
12312;SDS011;6220;53.580;9.758;2023-04-15T03:54:44;8.20;;;7.17;;
12312;SDS011;6220;53.580;9.758;2023-04-15T03:57:09;8.97;;;7.60;;
12312;SDS011;6220;53.580;9.758;2023-04-15T03:59:35;8.00;;;7.20;;
12312;SDS011;6220;53.580;9.758;2023-04-15T04:02:00;8.13;;;7.17;;
12312;SDS011;6220;53.580;9.758;2023-04-15T04:04:26;7.90;;;7.07;;
12312;SDS011;6220;53.580;9.758;2023-04-15T04:06:51;8.60;;;7.70;;
12312;SDS011;6220;53.580;9.758;2023-04-15T04:09:16;9.00;;;7.97;;
12312;SDS011;6220;53.580;9.758;2023-04-15T04:11:43;9.97;;;8.90;;
12312;SDS011;6220;53.580;9.758;2023-04-15T04:14:09;8.57;;;7.23;;
12312;SDS011;6220;53.580;9.758;2023-04-15T04:16:35;9.13;;;7.53;;
12312;SDS011;6220;53.580;9.758;2023-04-15T04:19:00;10.07;;;8.70;;
12312;SDS011;6220;53.580;9.758;2023-04-15T04:21:26;9.20;;;8.13;;
12312;SDS011;6220;53.580;9.758;2023-04-15T04:23:52;10.00;;;8.63;;
12312;SDS011;6220;53.580;9.758;2023-04-15T04:26:17;8.87;;;7.97;;
12312;SDS011;6220;53.580;9.758;2023-04-15T04:28:43;9.10;;;8.03;;
12312;SDS011;6220;53.580;9.758;2023-04-15T04:31:09;9.87;;;8.23;;
12312;SDS011;6220;53.580;9.758;2023-04-15T04:33:34;10.40;;;8.57;;
12312;SDS011;6220;53.580;9.758;2023-04-15T04:36:00;9.60;;;8.60;;
12312;SDS011;6220;53.580;9.758;2023-04-15T04:38:25;11.60;;;8.63;;
12312;SDS011;6220;53.580;9.758;2023-04-15T04:40:51;11.53;;;9.40;;
12312;SDS011;6220;53.580;9.758;2023-04-15T04:43:16;10.73;;;9.07;;
12312;SDS011;6220;53.580;9.758;2023-04-15T04:45:42;11.87;;;10.23;;
12312;SDS011;6220;53.580;9.758;2023-04-15T04:48:07;12.17;;;9.87;;
12312;SDS011;6220;53.580;9.758;2023-04-15T04:50:34;11.87;;;9.80;;
12312;SDS011;6220;53.580;9.758;2023-04-15T04:53:00;13.00;;;10.47;;
12312;SDS011;6220;53.580;9.758;2023-04-15T04:55:25;13.07;;;10.73;;
12312;SDS011;6220;53.580;9.758;2023-04-15T04:57:51;13.10;;;10.47;;
12312;SDS011;6220;53.580;9.758;2023-04-15T05:00:16;13.80;;;11.07;;
12312;SDS011;6220;53.580;9.758;2023-04-15T05:02:42;12.63;;;10.03;;
12312;SDS011;6220;53.580;9.758;2023-04-15T05:05:08;15.10;;;12.00;;
12312;SDS011;6220;53.580;9.758;2023-04-15T05:07:34;13.87;;;11.27;;
12312;SDS011;6220;53.580;9.758;2023-04-15T05:09:59;16.10;;;12.77;;
12312;SDS011;6220;53.580;9.758;2023-04-15T05:12:25;15.17;;;12.07;;
12312;SDS011;6220;53.580;9.758;2023-04-15T05:14:50;16.53;;;12.63;;
12312;SDS011;6220;53.580;9.758;2023-04-15T05:17:16;16.90;;;12.50;;
12312;SDS011;6220;53.580;9.758;2023-04-15T05:19:41;17.73;;;14.33;;
12312;SDS011;6220;53.580;9.758;2023-04-15T05:22:07;16.23;;;12.43;;
12312;SDS011;6220;53.580;9.758;2023-04-15T05:24:32;17.27;;;13.13;;
12312;SDS011;6220;53.580;9.758;2023-04-15T05:26:57;18.70;;;14.33;;
12312;SDS011;6220;53.580;9.758;2023-04-15T05:29:23;17.73;;;14.10;;
12312;SDS011;6220;53.580;9.758;2023-04-15T05:31:48;16.90;;;12.60;;
12312;SDS011;6220;53.580;9.758;2023-04-15T05:34:13;16.40;;;12.77;;
12312;SDS011;6220;53.580;9.758;2023-04-15T05:36:40;19.87;;;14.20;;
12312;SDS011;6220;53.580;9.758;2023-04-15T05:39:08;18.73;;;14.27;;
12312;SDS011;6220;53.580;9.758;2023-04-15T05:41:34;17.47;;;13.93;;
12312;SDS011;6220;53.580;9.758;2023-04-15T05:44:00;20.30;;;15.70;;
12312;SDS011;6220;53.580;9.758;2023-04-15T05:46:25;20.47;;;14.63;;
12312;SDS011;6220;53.580;9.758;2023-04-15T05:48:51;19.03;;;15.00;;
12312;SDS011;6220;53.580;9.758;2023-04-15T05:51:16;19.87;;;16.13;;
12312;SDS011;6220;53.580;9.758;2023-04-15T05:53:42;20.97;;;15.37;;
12312;SDS011;6220;53.580;9.758;2023-04-15T05:56:07;19.17;;;14.80;;
12312;SDS011;6220;53.580;9.758;2023-04-15T05:58:33;20.23;;;15.40;;
12312;SDS011;6220;53.580;9.758;2023-04-15T06:00:58;19.70;;;14.87;;
12312;SDS011;6220;53.580;9.758;2023-04-15T06:03:24;21.17;;;15.93;;
12312;SDS011;6220;53.580;9.758;2023-04-15T06:05:50;18.73;;;15.33;;
12312;SDS011;6220;53.580;9.758;2023-04-15T06:08:16;20.70;;;15.83;;
12312;SDS011;6220;53.580;9.758;2023-04-15T06:10:42;22.43;;;17.00;;
12312;SDS011;6220;53.580;9.758;2023-04-15T06:13:08;22.97;;;16.37;;
12312;SDS011;6220;53.580;9.758;2023-04-15T06:15:33;22.97;;;16.87;;
12312;SDS011;6220;53.580;9.758;2023-04-15T06:17:58;23.47;;;17.50;;
12312;SDS011;6220;53.580;9.758;2023-04-15T06:20:24;24.40;;;17.47;;
12312;SDS011;6220;53.580;9.758;2023-04-15T06:22:50;21.13;;;17.07;;
12312;SDS011;6220;53.580;9.758;2023-04-15T06:25:16;21.10;;;16.83;;
12312;SDS011;6220;53.580;9.758;2023-04-15T06:27:41;25.73;;;18.30;;
12312;SDS011;6220;53.580;9.758;2023-04-15T06:30:08;21.40;;;17.63;;
12312;SDS011;6220;53.580;9.758;2023-04-15T06:32:34;25.10;;;19.40;;
12312;SDS011;6220;53.580;9.758;2023-04-15T06:34:59;24.83;;;20.03;;
12312;SDS011;6220;53.580;9.758;2023-04-15T06:37:25;29.40;;;21.40;;
12312;SDS011;6220;53.580;9.758;2023-04-15T06:39:50;29.27;;;20.93;;
12312;SDS011;6220;53.580;9.758;2023-04-15T06:42:17;31.00;;;22.43;;
12312;SDS011;6220;53.580;9.758;2023-04-15T06:44:42;30.33;;;21.33;;
12312;SDS011;6220;53.580;9.758;2023-04-15T06:47:08;27.60;;;20.87;;
12312;SDS011;6220;53.580;9.758;2023-04-15T06:49:33;27.90;;;20.97;;
12312;SDS011;6220;53.580;9.758;2023-04-15T06:51:59;30.27;;;22.30;;
12312;SDS011;6220;53.580;9.758;2023-04-15T06:54:25;27.80;;;20.97;;
12312;SDS011;6220;53.580;9.758;2023-04-15T06:56:51;27.67;;;21.10;;
12312;SDS011;6220;53.580;9.758;2023-04-15T06:59:16;27.60;;;20.67;;
12312;SDS011;6220;53.580;9.758;2023-04-15T07:01:42;27.07;;;20.87;;
12312;SDS011;6220;53.580;9.758;2023-04-15T07:04:08;31.53;;;22.17;;
12312;SDS011;6220;53.580;9.758;2023-04-15T07:06:35;28.20;;;21.47;;
12312;SDS011;6220;53.580;9.758;2023-04-15T07:09:00;33.07;;;23.83;;
12312;SDS011;6220;53.580;9.758;2023-04-15T07:11:28;32.77;;;22.77;;
12312;SDS011;6220;53.580;9.758;2023-04-15T07:13:54;30.40;;;22.90;;
12312;SDS011;6220;53.580;9.758;2023-04-15T07:16:19;29.03;;;22.50;;
12312;SDS011;6220;53.580;9.758;2023-04-15T07:18:45;33.10;;;22.63;;
12312;SDS011;6220;53.580;9.758;2023-04-15T07:21:11;31.10;;;22.03;;
12312;SDS011;6220;53.580;9.758;2023-04-15T07:23:36;31.87;;;22.10;;
12312;SDS011;6220;53.580;9.758;2023-04-15T07:26:02;27.27;;;21.73;;
12312;SDS011;6220;53.580;9.758;2023-04-15T07:28:27;29.63;;;21.87;;
12312;SDS011;6220;53.580;9.758;2023-04-15T07:30:53;30.47;;;22.60;;
12312;SDS011;6220;53.580;9.758;2023-04-15T07:33:19;29.67;;;22.30;;
12312;SDS011;6220;53.580;9.758;2023-04-15T07:35:44;30.97;;;23.00;;
12312;SDS011;6220;53.580;9.758;2023-04-15T07:38:10;30.63;;;22.10;;
12312;SDS011;6220;53.580;9.758;2023-04-15T07:40:38;32.57;;;25.20;;
12312;SDS011;6220;53.580;9.758;2023-04-15T07:43:04;32.07;;;23.00;;
12312;SDS011;6220;53.580;9.758;2023-04-15T07:45:30;30.13;;;22.37;;
12312;SDS011;6220;53.580;9.758;2023-04-15T07:47:56;30.53;;;23.37;;
12312;SDS011;6220;53.580;9.758;2023-04-15T07:50:22;34.30;;;25.70;;
12312;SDS011;6220;53.580;9.758;2023-04-15T07:52:48;36.17;;;25.93;;
12312;SDS011;6220;53.580;9.758;2023-04-15T07:55:16;35.00;;;26.03;;
12312;SDS011;6220;53.580;9.758;2023-04-15T07:57:44;36.57;;;27.47;;
12312;SDS011;6220;53.580;9.758;2023-04-15T08:00:09;36.97;;;27.37;;
12312;SDS011;6220;53.580;9.758;2023-04-15T08:02:35;35.13;;;27.97;;
12312;SDS011;6220;53.580;9.758;2023-04-15T08:05:01;37.37;;;27.47;;
12312;SDS011;6220;53.580;9.758;2023-04-15T08:07:28;36.93;;;27.43;;
12312;SDS011;6220;53.580;9.758;2023-04-15T08:09:54;34.00;;;28.17;;
12312;SDS011;6220;53.580;9.758;2023-04-15T08:12:19;36.70;;;28.70;;
12312;SDS011;6220;53.580;9.758;2023-04-15T08:14:45;39.00;;;28.77;;
12312;SDS011;6220;53.580;9.758;2023-04-15T08:17:10;42.20;;;29.33;;
12312;SDS011;6220;53.580;9.758;2023-04-15T08:19:36;38.03;;;29.03;;
12312;SDS011;6220;53.580;9.758;2023-04-15T08:22:01;39.67;;;29.73;;
12312;SDS011;6220;53.580;9.758;2023-04-15T08:24:27;40.20;;;29.73;;
12312;SDS011;6220;53.580;9.758;2023-04-15T08:26:52;40.07;;;30.43;;
12312;SDS011;6220;53.580;9.758;2023-04-15T08:29:18;40.47;;;29.20;;
12312;SDS011;6220;53.580;9.758;2023-04-15T08:31:43;41.30;;;29.77;;
12312;SDS011;6220;53.580;9.758;2023-04-15T08:34:12;38.90;;;30.77;;
12312;SDS011;6220;53.580;9.758;2023-04-15T08:36:37;40.03;;;31.07;;
12312;SDS011;6220;53.580;9.758;2023-04-15T08:39:03;41.03;;;31.00;;
12312;SDS011;6220;53.580;9.758;2023-04-15T08:41:30;41.37;;;30.80;;
12312;SDS011;6220;53.580;9.758;2023-04-15T08:44:03;41.90;;;31.83;;
12312;SDS011;6220;53.580;9.758;2023-04-15T08:46:32;44.53;;;30.90;;
12312;SDS011;6220;53.580;9.758;2023-04-15T08:49:02;42.40;;;31.70;;
12312;SDS011;6220;53.580;9.758;2023-04-15T08:51:28;43.67;;;31.87;;
12312;SDS011;6220;53.580;9.758;2023-04-15T08:53:53;43.43;;;31.50;;
12312;SDS011;6220;53.580;9.758;2023-04-15T08:56:19;45.23;;;32.13;;
12312;SDS011;6220;53.580;9.758;2023-04-15T08:58:48;42.33;;;31.70;;
12312;SDS011;6220;53.580;9.758;2023-04-15T09:01:14;43.57;;;31.63;;
12312;SDS011;6220;53.580;9.758;2023-04-15T09:03:41;46.27;;;32.60;;
12312;SDS011;6220;53.580;9.758;2023-04-15T09:06:06;43.73;;;31.10;;
12312;SDS011;6220;53.580;9.758;2023-04-15T09:08:32;39.87;;;31.00;;
12312;SDS011;6220;53.580;9.758;2023-04-15T09:11:01;44.37;;;32.57;;
12312;SDS011;6220;53.580;9.758;2023-04-15T09:13:38;43.13;;;32.90;;
12312;SDS011;6220;53.580;9.758;2023-04-15T09:16:04;45.20;;;31.70;;
12312;SDS011;6220;53.580;9.758;2023-04-15T09:18:30;47.83;;;33.23;;
12312;SDS011;6220;53.580;9.758;2023-04-15T09:21:10;45.63;;;31.77;;
12312;SDS011;6220;53.580;9.758;2023-04-15T09:23:38;42.67;;;32.17;;
12312;SDS011;6220;53.580;9.758;2023-04-15T09:26:06;45.83;;;32.73;;
12312;SDS011;6220;53.580;9.758;2023-04-15T09:28:32;44.80;;;32.37;;
12312;SDS011;6220;53.580;9.758;2023-04-15T09:31:00;44.60;;;33.47;;
12312;SDS011;6220;53.580;9.758;2023-04-15T09:33:27;43.60;;;31.77;;
12312;SDS011;6220;53.580;9.758;2023-04-15T09:38:25;44.57;;;31.07;;
12312;SDS011;6220;53.580;9.758;2023-04-15T09:40:51;43.73;;;32.33;;
12312;SDS011;6220;53.580;9.758;2023-04-15T09:43:44;37.63;;;29.90;;
12312;SDS011;6220;53.580;9.758;2023-04-15T09:46:08;44.83;;;30.70;;
12312;SDS011;6220;53.580;9.758;2023-04-15T09:48:34;47.23;;;32.47;;
12312;SDS011;6220;53.580;9.758;2023-04-15T09:51:00;38.00;;;31.13;;
12312;SDS011;6220;53.580;9.758;2023-04-15T09:53:26;44.63;;;31.87;;
12312;SDS011;6220;53.580;9.758;2023-04-15T09:55:53;45.43;;;32.67;;
12312;SDS011;6220;53.580;9.758;2023-04-15T09:58:21;45.83;;;32.13;;
12312;SDS011;6220;53.580;9.758;2023-04-15T10:00:50;43.87;;;32.33;;
12312;SDS011;6220;53.580;9.758;2023-04-15T10:03:27;45.47;;;31.83;;
12312;SDS011;6220;53.580;9.758;2023-04-15T10:05:54;44.90;;;32.03;;
12312;SDS011;6220;53.580;9.758;2023-04-15T10:08:27;41.03;;;31.27;;
12312;SDS011;6220;53.580;9.758;2023-04-15T10:10:54;43.60;;;31.83;;
12312;SDS011;6220;53.580;9.758;2023-04-15T10:13:21;43.67;;;32.83;;
12312;SDS011;6220;53.580;9.758;2023-04-15T10:16:01;41.50;;;31.07;;
12312;SDS011;6220;53.580;9.758;2023-04-15T10:18:33;41.17;;;31.27;;
12312;SDS011;6220;53.580;9.758;2023-04-15T10:21:00;42.27;;;31.50;;
12312;SDS011;6220;53.580;9.758;2023-04-15T10:23:25;42.17;;;31.80;;
12312;SDS011;6220;53.580;9.758;2023-04-15T10:25:52;43.93;;;30.63;;
12312;SDS011;6220;53.580;9.758;2023-04-15T10:28:20;42.80;;;31.70;;
12312;SDS011;6220;53.580;9.758;2023-04-15T10:30:49;40.13;;;30.87;;
12312;SDS011;6220;53.580;9.758;2023-04-15T10:33:15;42.70;;;29.47;;
12312;SDS011;6220;53.580;9.758;2023-04-15T10:35:41;41.93;;;30.57;;
12312;SDS011;6220;53.580;9.758;2023-04-15T10:43:39;39.07;;;29.57;;
12312;SDS011;6220;53.580;9.758;2023-04-15T10:46:34;39.57;;;29.53;;
12312;SDS011;6220;53.580;9.758;2023-04-15T10:49:05;37.33;;;29.67;;
12312;SDS011;6220;53.580;9.758;2023-04-15T10:51:32;42.00;;;29.47;;
12312;SDS011;6220;53.580;9.758;2023-04-15T10:53:58;38.77;;;29.13;;
12312;SDS011;6220;53.580;9.758;2023-04-15T10:56:24;36.57;;;27.77;;
12312;SDS011;6220;53.580;9.758;2023-04-15T10:58:49;38.23;;;28.27;;
12312;SDS011;6220;53.580;9.758;2023-04-15T11:01:15;34.37;;;27.10;;
12312;SDS011;6220;53.580;9.758;2023-04-15T11:03:41;33.43;;;25.87;;
12312;SDS011;6220;53.580;9.758;2023-04-15T11:06:07;36.40;;;26.30;;
12312;SDS011;6220;53.580;9.758;2023-04-15T11:08:52;31.83;;;24.93;;
12312;SDS011;6220;53.580;9.758;2023-04-15T11:11:23;28.67;;;24.47;;
12312;SDS011;6220;53.580;9.758;2023-04-15T11:14:02;32.23;;;23.83;;
12312;SDS011;6220;53.580;9.758;2023-04-15T11:16:28;29.87;;;23.77;;
12312;SDS011;6220;53.580;9.758;2023-04-15T11:18:54;25.63;;;22.77;;
12312;SDS011;6220;53.580;9.758;2023-04-15T11:21:23;25.13;;;22.43;;
12312;SDS011;6220;53.580;9.758;2023-04-15T11:23:50;25.10;;;20.57;;
12312;SDS011;6220;53.580;9.758;2023-04-15T11:26:17;25.70;;;20.70;;
12312;SDS011;6220;53.580;9.758;2023-04-15T11:28:42;27.40;;;21.70;;
12312;SDS011;6220;53.580;9.758;2023-04-15T11:31:12;28.10;;;22.60;;
12312;SDS011;6220;53.580;9.758;2023-04-15T11:33:55;26.57;;;20.30;;
12312;SDS011;6220;53.580;9.758;2023-04-15T11:36:23;21.47;;;19.17;;
12312;SDS011;6220;53.580;9.758;2023-04-15T11:38:51;26.30;;;20.00;;
12312;SDS011;6220;53.580;9.758;2023-04-15T11:41:19;22.93;;;18.00;;
12312;SDS011;6220;53.580;9.758;2023-04-15T11:43:45;20.67;;;17.37;;
12312;SDS011;6220;53.580;9.758;2023-04-15T11:46:11;24.53;;;18.47;;
12312;SDS011;6220;53.580;9.758;2023-04-15T11:48:40;20.17;;;17.27;;
12312;SDS011;6220;53.580;9.758;2023-04-15T11:51:07;20.40;;;16.80;;
12312;SDS011;6220;53.580;9.758;2023-04-15T11:53:40;20.87;;;18.03;;
12312;SDS011;6220;53.580;9.758;2023-04-15T11:56:19;21.77;;;16.07;;
12312;SDS011;6220;53.580;9.758;2023-04-15T11:58:46;17.13;;;15.07;;
12312;SDS011;6220;53.580;9.758;2023-04-15T12:01:12;14.63;;;12.50;;
12312;SDS011;6220;53.580;9.758;2023-04-15T12:06:08;11.97;;;9.53;;
12312;SDS011;6220;53.580;9.758;2023-04-15T12:11:20;9.43;;;8.47;;
12312;SDS011;6220;53.580;9.758;2023-04-15T12:16:45;13.30;;;9.70;;
12312;SDS011;6220;53.580;9.758;2023-04-15T12:19:13;10.10;;;9.20;;
12312;SDS011;6220;53.580;9.758;2023-04-15T12:21:40;11.53;;;9.33;;
12312;SDS011;6220;53.580;9.758;2023-04-15T12:24:09;10.40;;;9.37;;
12312;SDS011;6220;53.580;9.758;2023-04-15T12:26:36;10.30;;;9.30;;
12312;SDS011;6220;53.580;9.758;2023-04-15T12:29:07;9.90;;;8.53;;
12312;SDS011;6220;53.580;9.758;2023-04-15T12:31:33;11.50;;;9.60;;
12312;SDS011;6220;53.580;9.758;2023-04-15T12:33:59;12.10;;;9.70;;
12312;SDS011;6220;53.580;9.758;2023-04-15T12:36:25;11.67;;;9.20;;
12312;SDS011;6220;53.580;9.758;2023-04-15T12:38:50;11.63;;;9.00;;
12312;SDS011;6220;53.580;9.758;2023-04-15T12:41:16;10.93;;;9.00;;
12312;SDS011;6220;53.580;9.758;2023-04-15T12:43:45;12.23;;;9.30;;
12312;SDS011;6220;53.580;9.758;2023-04-15T12:46:11;10.23;;;9.23;;
12312;SDS011;6220;53.580;9.758;2023-04-15T12:48:37;11.20;;;10.00;;
12312;SDS011;6220;53.580;9.758;2023-04-15T12:51:02;9.90;;;8.90;;
12312;SDS011;6220;53.580;9.758;2023-04-15T12:53:27;9.30;;;8.40;;
12312;SDS011;6220;53.580;9.758;2023-04-15T12:55:55;9.50;;;7.83;;
12312;SDS011;6220;53.580;9.758;2023-04-15T12:58:20;11.20;;;8.57;;
12312;SDS011;6220;53.580;9.758;2023-04-15T13:00:46;9.93;;;8.93;;
12312;SDS011;6220;53.580;9.758;2023-04-15T13:03:12;9.93;;;8.93;;
12312;SDS011;6220;53.580;9.758;2023-04-15T13:05:38;10.10;;;9.10;;
12312;SDS011;6220;53.580;9.758;2023-04-15T13:08:04;10.77;;;9.67;;
12312;SDS011;6220;53.580;9.758;2023-04-15T13:10:29;9.53;;;8.53;;
12312;SDS011;6220;53.580;9.758;2023-04-15T13:12:55;12.07;;;9.83;;
12312;SDS011;6220;53.580;9.758;2023-04-15T13:15:21;10.10;;;9.10;;
12312;SDS011;6220;53.580;9.758;2023-04-15T13:17:47;10.47;;;9.37;;
12312;SDS011;6220;53.580;9.758;2023-04-15T13:20:12;11.27;;;9.63;;
12312;SDS011;6220;53.580;9.758;2023-04-15T13:22:38;11.37;;;9.30;;
12312;SDS011;6220;53.580;9.758;2023-04-15T13:25:04;12.17;;;9.83;;
12312;SDS011;6220;53.580;9.758;2023-04-15T13:27:29;12.53;;;9.63;;
12312;SDS011;6220;53.580;9.758;2023-04-15T13:29:55;11.57;;;9.33;;
12312;SDS011;6220;53.580;9.758;2023-04-15T13:32:21;10.90;;;9.80;;
12312;SDS011;6220;53.580;9.758;2023-04-15T13:34:46;10.63;;;9.23;;
12312;SDS011;6220;53.580;9.758;2023-04-15T13:37:12;10.63;;;9.40;;
12312;SDS011;6220;53.580;9.758;2023-04-15T13:39:38;11.77;;;10.57;;
12312;SDS011;6220;53.580;9.758;2023-04-15T13:42:03;11.53;;;10.33;;
12312;SDS011;6220;53.580;9.758;2023-04-15T13:44:29;12.60;;;10.40;;
12312;SDS011;6220;53.580;9.758;2023-04-15T13:46:54;11.30;;;10.10;;
12312;SDS011;6220;53.580;9.758;2023-04-15T13:49:20;11.43;;;9.60;;
12312;SDS011;6220;53.580;9.758;2023-04-15T13:51:45;11.07;;;9.93;;
12312;SDS011;6220;53.580;9.758;2023-04-15T13:54:10;10.97;;;9.80;;
12312;SDS011;6220;53.580;9.758;2023-04-15T13:56:36;12.07;;;9.60;;
12312;SDS011;6220;53.580;9.758;2023-04-15T13:59:01;10.00;;;8.93;;
12312;SDS011;6220;53.580;9.758;2023-04-15T14:01:27;13.63;;;8.97;;
12312;SDS011;6220;53.580;9.758;2023-04-15T14:03:53;9.73;;;8.80;;
12312;SDS011;6220;53.580;9.758;2023-04-15T14:06:18;9.80;;;8.80;;
12312;SDS011;6220;53.580;9.758;2023-04-15T14:08:43;10.60;;;9.50;;
12312;SDS011;6220;53.580;9.758;2023-04-15T14:11:09;10.33;;;8.70;;
12312;SDS011;6220;53.580;9.758;2023-04-15T14:13:34;9.90;;;8.80;;
12312;SDS011;6220;53.580;9.758;2023-04-15T14:16:00;9.53;;;8.50;;
12312;SDS011;6220;53.580;9.758;2023-04-15T14:18:25;10.40;;;9.40;;
12312;SDS011;6220;53.580;9.758;2023-04-15T14:20:51;9.33;;;8.33;;
12312;SDS011;6220;53.580;9.758;2023-04-15T14:23:16;11.43;;;9.00;;
12312;SDS011;6220;53.580;9.758;2023-04-15T14:25:42;10.13;;;9.03;;
12312;SDS011;6220;53.580;9.758;2023-04-15T14:28:07;10.13;;;8.33;;
12312;SDS011;6220;53.580;9.758;2023-04-15T14:30:33;9.50;;;8.50;;
12312;SDS011;6220;53.580;9.758;2023-04-15T14:32:58;11.40;;;8.80;;
12312;SDS011;6220;53.580;9.758;2023-04-15T14:35:23;9.70;;;8.30;;
12312;SDS011;6220;53.580;9.758;2023-04-15T14:37:51;10.50;;;8.43;;
12312;SDS011;6220;53.580;9.758;2023-04-15T14:40:17;11.43;;;9.50;;
12312;SDS011;6220;53.580;9.758;2023-04-15T14:42:43;9.40;;;8.40;;
12312;SDS011;6220;53.580;9.758;2023-04-15T14:45:09;11.43;;;9.27;;
12312;SDS011;6220;53.580;9.758;2023-04-15T14:47:34;13.10;;;9.43;;
12312;SDS011;6220;53.580;9.758;2023-04-15T14:50:00;10.43;;;8.60;;
12312;SDS011;6220;53.580;9.758;2023-04-15T14:52:26;9.43;;;8.50;;
12312;SDS011;6220;53.580;9.758;2023-04-15T14:54:51;11.53;;;9.10;;
12312;SDS011;6220;53.580;9.758;2023-04-15T14:57:17;10.67;;;8.20;;